sensor_id;sensor_type;location;lat;lon;timestamp;temperature;humidity
38910;DHT22;24676;51.360;12.354;2022-12-29T00:02:16;8.60;99.90
38910;DHT22;24676;51.360;12.354;2022-12-29T00:05:00;8.60;99.90
38910;DHT22;24676;51.360;12.354;2022-12-29T00:07:44;8.60;99.90
38910;DHT22;24676;51.360;12.354;2022-12-29T00:10:28;8.60;99.90
38910;DHT22;24676;51.360;12.354;2022-12-29T00:13:12;8.60;99.90
38910;DHT22;24676;51.360;12.354;2022-12-29T00:16:35;8.60;99.90
38910;DHT22;24676;51.360;12.354;2022-12-29T00:19:20;8.70;99.90
38910;DHT22;24676;51.360;12.354;2022-12-29T00:22:23;8.80;99.90
38910;DHT22;24676;51.360;12.354;2022-12-29T00:25:26;8.80;99.90
38910;DHT22;24676;51.360;12.354;2022-12-29T00:28:29;8.90;99.90
38910;DHT22;24676;51.360;12.354;2022-12-29T00:31:32;8.90;99.90
38910;DHT22;24676;51.360;12.354;2022-12-29T00:34:35;9.00;99.90
38910;DHT22;24676;51.360;12.354;2022-12-29T00:37:43;9.10;99.90
38910;DHT22;24676;51.360;12.354;2022-12-29T00:40:48;9.10;99.90
38910;DHT22;24676;51.360;12.354;2022-12-29T00:43:51;9.10;99.90
38910;DHT22;24676;51.360;12.354;2022-12-29T00:46:50;9.00;99.90
38910;DHT22;24676;51.360;12.354;2022-12-29T00:49:35;9.00;99.90
38910;DHT22;24676;51.360;12.354;2022-12-29T00:52:19;9.10;99.90
38910;DHT22;24676;51.360;12.354;2022-12-29T00:55:03;9.10;99.90
38910;DHT22;24676;51.360;12.354;2022-12-29T00:57:47;9.10;99.90
38910;DHT22;24676;51.360;12.354;2022-12-29T01:00:31;9.10;99.90
38910;DHT22;24676;51.360;12.354;2022-12-29T01:03:16;9.20;99.90
38910;DHT22;24676;51.360;12.354;2022-12-29T01:06:02;9.20;99.90
38910;DHT22;24676;51.360;12.354;2022-12-29T01:08:46;9.30;99.90
38910;DHT22;24676;51.360;12.354;2022-12-29T01:11:30;9.30;99.90
38910;DHT22;24676;51.360;12.354;2022-12-29T01:14:15;9.40;99.90
38910;DHT22;24676;51.360;12.354;2022-12-29T01:16:59;9.40;99.90
38910;DHT22;24676;51.360;12.354;2022-12-29T01:19:43;9.40;99.90
38910;DHT22;24676;51.360;12.354;2022-12-29T01:22:27;9.40;99.90
38910;DHT22;24676;51.360;12.354;2022-12-29T01:25:12;9.40;99.90
38910;DHT22;24676;51.360;12.354;2022-12-29T01:27:56;9.50;99.90
38910;DHT22;24676;51.360;12.354;2022-12-29T01:30:40;9.50;99.90
38910;DHT22;24676;51.360;12.354;2022-12-29T01:33:24;9.50;99.90
38910;DHT22;24676;51.360;12.354;2022-12-29T01:36:12;9.50;99.90
38910;DHT22;24676;51.360;12.354;2022-12-29T01:38:56;9.50;99.90
38910;DHT22;24676;51.360;12.354;2022-12-29T01:41:40;9.60;99.90
38910;DHT22;24676;51.360;12.354;2022-12-29T01:47:33;9.60;99.90
38910;DHT22;24676;51.360;12.354;2022-12-29T01:50:29;9.60;99.90
38910;DHT22;24676;51.360;12.354;2022-12-29T01:53:27;9.60;99.90
38910;DHT22;24676;51.360;12.354;2022-12-29T01:56:17;9.60;99.90
38910;DHT22;24676;51.360;12.354;2022-12-29T01:59:05;9.60;99.90
38910;DHT22;24676;51.360;12.354;2022-12-29T02:01:50;9.60;99.90
38910;DHT22;24676;51.360;12.354;2022-12-29T02:04:35;9.60;99.90
38910;DHT22;24676;51.360;12.354;2022-12-29T02:07:24;9.60;99.90
38910;DHT22;24676;51.360;12.354;2022-12-29T02:10:09;9.70;99.90
38910;DHT22;24676;51.360;12.354;2022-12-29T02:12:53;9.70;99.90
38910;DHT22;24676;51.360;12.354;2022-12-29T02:16:01;9.70;99.90
38910;DHT22;24676;51.360;12.354;2022-12-29T02:19:02;9.70;99.90
38910;DHT22;24676;51.360;12.354;2022-12-29T02:45:21;9.90;99.90
38910;DHT22;24676;51.360;12.354;2022-12-29T02:51:03;10.00;99.90
38910;DHT22;24676;51.360;12.354;2022-12-29T02:53:48;10.00;99.90
38910;DHT22;24676;51.360;12.354;2022-12-29T02:56:51;9.90;99.90
38910;DHT22;24676;51.360;12.354;2022-12-29T02:59:36;10.00;99.90
38910;DHT22;24676;51.360;12.354;2022-12-29T03:05:29;9.90;99.90
38910;DHT22;24676;51.360;12.354;2022-12-29T03:15:02;9.90;99.90
38910;DHT22;24676;51.360;12.354;2022-12-29T03:18:12;9.90;99.90
38910;DHT22;24676;51.360;12.354;2022-12-29T03:21:24;9.90;99.90
38910;DHT22;24676;51.360;12.354;2022-12-29T03:24:32;10.00;99.90
38910;DHT22;24676;51.360;12.354;2022-12-29T03:27:22;10.00;99.90
38910;DHT22;24676;51.360;12.354;2022-12-29T03:30:07;10.00;99.90
38910;DHT22;24676;51.360;12.354;2022-12-29T03:32:55;10.10;99.90
38910;DHT22;24676;51.360;12.354;2022-12-29T03:35:42;10.10;99.90
38910;DHT22;24676;51.360;12.354;2022-12-29T03:41:28;10.20;99.90
38910;DHT22;24676;51.360;12.354;2022-12-29T03:44:13;10.10;99.90
38910;DHT22;24676;51.360;12.354;2022-12-29T03:46:57;10.20;99.90
38910;DHT22;24676;51.360;12.354;2022-12-29T03:49:42;10.20;99.90
38910;DHT22;24676;51.360;12.354;2022-12-29T03:52:26;10.30;99.90
38910;DHT22;24676;51.360;12.354;2022-12-29T03:55:10;10.30;99.90
38910;DHT22;24676;51.360;12.354;2022-12-29T03:57:54;10.30;99.90
38910;DHT22;24676;51.360;12.354;2022-12-29T04:00:38;10.30;99.90
38910;DHT22;24676;51.360;12.354;2022-12-29T04:03:23;10.30;99.90
38910;DHT22;24676;51.360;12.354;2022-12-29T04:06:07;10.30;99.90
38910;DHT22;24676;51.360;12.354;2022-12-29T04:08:52;10.30;99.90
38910;DHT22;24676;51.360;12.354;2022-12-29T04:11:36;10.30;99.90
38910;DHT22;24676;51.360;12.354;2022-12-29T04:14:21;10.30;99.90
38910;DHT22;24676;51.360;12.354;2022-12-29T04:17:05;10.30;99.90
38910;DHT22;24676;51.360;12.354;2022-12-29T04:19:50;10.30;99.90
38910;DHT22;24676;51.360;12.354;2022-12-29T04:22:35;10.30;99.90
38910;DHT22;24676;51.360;12.354;2022-12-29T04:25:19;10.20;99.90
38910;DHT22;24676;51.360;12.354;2022-12-29T04:28:03;10.20;99.90
38910;DHT22;24676;51.360;12.354;2022-12-29T04:30:47;10.20;99.90
38910;DHT22;24676;51.360;12.354;2022-12-29T04:33:32;10.20;99.90
38910;DHT22;24676;51.360;12.354;2022-12-29T04:36:16;10.20;99.90
38910;DHT22;24676;51.360;12.354;2022-12-29T04:39:00;10.20;99.90
38910;DHT22;24676;51.360;12.354;2022-12-29T04:41:45;10.20;99.90
38910;DHT22;24676;51.360;12.354;2022-12-29T04:44:30;10.20;99.90
38910;DHT22;24676;51.360;12.354;2022-12-29T04:47:13;10.30;99.90
38910;DHT22;24676;51.360;12.354;2022-12-29T04:49:57;10.30;99.90
38910;DHT22;24676;51.360;12.354;2022-12-29T04:52:42;10.30;99.90
38910;DHT22;24676;51.360;12.354;2022-12-29T04:55:26;10.30;99.90
38910;DHT22;24676;51.360;12.354;2022-12-29T04:58:10;10.30;99.90
38910;DHT22;24676;51.360;12.354;2022-12-29T05:00:54;10.30;99.90
38910;DHT22;24676;51.360;12.354;2022-12-29T05:03:39;10.30;99.90
38910;DHT22;24676;51.360;12.354;2022-12-29T05:06:23;10.30;99.90
38910;DHT22;24676;51.360;12.354;2022-12-29T05:09:07;10.30;99.90
38910;DHT22;24676;51.360;12.354;2022-12-29T05:11:51;10.20;99.90
38910;DHT22;24676;51.360;12.354;2022-12-29T05:14:35;10.20;99.90
38910;DHT22;24676;51.360;12.354;2022-12-29T05:17:20;10.10;99.90
38910;DHT22;24676;51.360;12.354;2022-12-29T05:20:04;10.00;99.90
38910;DHT22;24676;51.360;12.354;2022-12-29T05:22:49;10.00;99.90
38910;DHT22;24676;51.360;12.354;2022-12-29T05:25:33;10.00;99.90
38910;DHT22;24676;51.360;12.354;2022-12-29T05:28:17;10.00;99.90
38910;DHT22;24676;51.360;12.354;2022-12-29T05:31:01;9.90;99.90
38910;DHT22;24676;51.360;12.354;2022-12-29T05:33:46;9.80;99.90
38910;DHT22;24676;51.360;12.354;2022-12-29T05:36:30;9.80;99.90
38910;DHT22;24676;51.360;12.354;2022-12-29T05:39:14;9.70;99.90
38910;DHT22;24676;51.360;12.354;2022-12-29T05:41:58;9.70;99.90
38910;DHT22;24676;51.360;12.354;2022-12-29T05:44:42;9.70;99.90
38910;DHT22;24676;51.360;12.354;2022-12-29T05:47:26;9.70;99.90
38910;DHT22;24676;51.360;12.354;2022-12-29T05:50:11;9.70;99.90
38910;DHT22;24676;51.360;12.354;2022-12-29T05:52:55;9.70;99.90
38910;DHT22;24676;51.360;12.354;2022-12-29T05:55:40;9.70;99.90
38910;DHT22;24676;51.360;12.354;2022-12-29T05:58:24;9.70;99.90
38910;DHT22;24676;51.360;12.354;2022-12-29T06:01:09;9.70;99.90
38910;DHT22;24676;51.360;12.354;2022-12-29T06:03:53;9.70;99.90
38910;DHT22;24676;51.360;12.354;2022-12-29T06:06:37;9.70;99.90
38910;DHT22;24676;51.360;12.354;2022-12-29T06:09:22;9.70;99.90
38910;DHT22;24676;51.360;12.354;2022-12-29T06:12:06;9.70;99.90
38910;DHT22;24676;51.360;12.354;2022-12-29T06:14:51;9.80;99.90
38910;DHT22;24676;51.360;12.354;2022-12-29T06:17:35;9.90;99.90
38910;DHT22;24676;51.360;12.354;2022-12-29T06:20:19;9.90;99.90
38910;DHT22;24676;51.360;12.354;2022-12-29T06:23:04;10.00;99.90
38910;DHT22;24676;51.360;12.354;2022-12-29T06:25:48;10.10;99.90
38910;DHT22;24676;51.360;12.354;2022-12-29T06:28:32;10.10;99.90
38910;DHT22;24676;51.360;12.354;2022-12-29T06:31:16;10.20;99.90
38910;DHT22;24676;51.360;12.354;2022-12-29T06:34:00;10.20;99.90
38910;DHT22;24676;51.360;12.354;2022-12-29T06:36:44;10.20;99.90
38910;DHT22;24676;51.360;12.354;2022-12-29T06:39:28;10.30;99.90
38910;DHT22;24676;51.360;12.354;2022-12-29T06:42:13;10.20;99.90
38910;DHT22;24676;51.360;12.354;2022-12-29T06:44:57;10.30;99.90
38910;DHT22;24676;51.360;12.354;2022-12-29T06:47:42;10.20;99.90
38910;DHT22;24676;51.360;12.354;2022-12-29T06:50:27;10.20;99.90
38910;DHT22;24676;51.360;12.354;2022-12-29T06:53:11;10.20;99.90
38910;DHT22;24676;51.360;12.354;2022-12-29T06:55:55;10.20;99.90
38910;DHT22;24676;51.360;12.354;2022-12-29T06:58:40;10.10;99.90
38910;DHT22;24676;51.360;12.354;2022-12-29T07:01:25;10.10;99.90
38910;DHT22;24676;51.360;12.354;2022-12-29T07:04:09;10.10;99.90
38910;DHT22;24676;51.360;12.354;2022-12-29T07:06:54;10.00;99.90
38910;DHT22;24676;51.360;12.354;2022-12-29T07:09:38;9.90;99.90
38910;DHT22;24676;51.360;12.354;2022-12-29T07:12:22;9.80;99.90
38910;DHT22;24676;51.360;12.354;2022-12-29T07:15:07;9.80;99.90
38910;DHT22;24676;51.360;12.354;2022-12-29T07:17:51;9.70;99.90
38910;DHT22;24676;51.360;12.354;2022-12-29T07:20:35;9.60;99.90
38910;DHT22;24676;51.360;12.354;2022-12-29T07:23:19;9.60;99.90
38910;DHT22;24676;51.360;12.354;2022-12-29T07:26:06;9.60;99.90
38910;DHT22;24676;51.360;12.354;2022-12-29T07:28:51;9.60;99.90
38910;DHT22;24676;51.360;12.354;2022-12-29T07:31:34;9.70;99.90
38910;DHT22;24676;51.360;12.354;2022-12-29T07:34:19;9.70;99.90
38910;DHT22;24676;51.360;12.354;2022-12-29T07:37:03;9.70;99.90
38910;DHT22;24676;51.360;12.354;2022-12-29T07:39:47;9.70;99.90
38910;DHT22;24676;51.360;12.354;2022-12-29T07:42:32;9.80;99.90
38910;DHT22;24676;51.360;12.354;2022-12-29T07:45:16;9.80;99.90
38910;DHT22;24676;51.360;12.354;2022-12-29T07:48:01;9.90;99.90
38910;DHT22;24676;51.360;12.354;2022-12-29T07:50:46;10.00;99.90
38910;DHT22;24676;51.360;12.354;2022-12-29T07:53:30;10.00;99.90
38910;DHT22;24676;51.360;12.354;2022-12-29T07:56:14;10.10;99.90
38910;DHT22;24676;51.360;12.354;2022-12-29T07:58:59;10.10;99.90
38910;DHT22;24676;51.360;12.354;2022-12-29T08:01:42;10.10;99.90
38910;DHT22;24676;51.360;12.354;2022-12-29T08:04:27;10.20;99.90
38910;DHT22;24676;51.360;12.354;2022-12-29T08:07:11;10.20;99.90
38910;DHT22;24676;51.360;12.354;2022-12-29T08:09:55;10.30;99.90
38910;DHT22;24676;51.360;12.354;2022-12-29T08:12:40;10.40;99.90
38910;DHT22;24676;51.360;12.354;2022-12-29T08:15:24;10.50;99.90
38910;DHT22;24676;51.360;12.354;2022-12-29T08:18:08;10.50;99.90
38910;DHT22;24676;51.360;12.354;2022-12-29T08:20:52;10.60;99.90
38910;DHT22;24676;51.360;12.354;2022-12-29T08:23:36;10.60;99.90
38910;DHT22;24676;51.360;12.354;2022-12-29T08:26:20;10.70;99.90
38910;DHT22;24676;51.360;12.354;2022-12-29T08:29:04;10.70;99.90
38910;DHT22;24676;51.360;12.354;2022-12-29T08:31:48;10.70;99.90
38910;DHT22;24676;51.360;12.354;2022-12-29T08:34:33;10.80;99.90
38910;DHT22;24676;51.360;12.354;2022-12-29T08:37:17;10.80;99.90
38910;DHT22;24676;51.360;12.354;2022-12-29T08:40:01;10.80;99.90
38910;DHT22;24676;51.360;12.354;2022-12-29T08:42:47;10.80;99.90
38910;DHT22;24676;51.360;12.354;2022-12-29T08:45:32;10.90;99.90
38910;DHT22;24676;51.360;12.354;2022-12-29T08:48:16;10.90;99.90
38910;DHT22;24676;51.360;12.354;2022-12-29T08:51:03;11.00;99.90
38910;DHT22;24676;51.360;12.354;2022-12-29T08:53:48;11.00;99.90
38910;DHT22;24676;51.360;12.354;2022-12-29T08:56:32;11.00;99.90
38910;DHT22;24676;51.360;12.354;2022-12-29T08:59:16;11.20;99.90
38910;DHT22;24676;51.360;12.354;2022-12-29T09:02:01;11.30;99.90
38910;DHT22;24676;51.360;12.354;2022-12-29T09:04:45;11.60;99.90
38910;DHT22;24676;51.360;12.354;2022-12-29T09:07:29;11.90;99.90
38910;DHT22;24676;51.360;12.354;2022-12-29T09:10:13;12.20;99.90
38910;DHT22;24676;51.360;12.354;2022-12-29T09:12:58;12.60;99.90
38910;DHT22;24676;51.360;12.354;2022-12-29T09:15:42;13.00;99.90
38910;DHT22;24676;51.360;12.354;2022-12-29T09:18:27;13.30;99.90
38910;DHT22;24676;51.360;12.354;2022-12-29T09:21:11;13.70;99.90
38910;DHT22;24676;51.360;12.354;2022-12-29T09:23:56;14.30;99.90
38910;DHT22;24676;51.360;12.354;2022-12-29T09:26:40;14.90;99.90
38910;DHT22;24676;51.360;12.354;2022-12-29T09:29:24;15.20;98.80
38910;DHT22;24676;51.360;12.354;2022-12-29T09:32:09;15.50;97.10
38910;DHT22;24676;51.360;12.354;2022-12-29T09:34:53;16.00;93.50
38910;DHT22;24676;51.360;12.354;2022-12-29T09:37:38;16.50;91.70
38910;DHT22;24676;51.360;12.354;2022-12-29T09:40:30;16.60;84.10
38910;DHT22;24676;51.360;12.354;2022-12-29T09:43:28;16.60;81.90
38910;DHT22;24676;51.360;12.354;2022-12-29T09:51:53;16.70;80.80
38910;DHT22;24676;51.360;12.354;2022-12-29T10:01:06;16.10;82.20
38910;DHT22;24676;51.360;12.354;2022-12-29T10:03:54;16.30;79.10
38910;DHT22;24676;51.360;12.354;2022-12-29T10:07:11;16.00;81.20
38910;DHT22;24676;51.360;12.354;2022-12-29T10:13:10;14.90;91.80
38910;DHT22;24676;51.360;12.354;2022-12-29T10:16:19;14.30;97.30
38910;DHT22;24676;51.360;12.354;2022-12-29T10:19:38;13.90;99.90
38910;DHT22;24676;51.360;12.354;2022-12-29T10:25:25;13.30;99.90
38910;DHT22;24676;51.360;12.354;2022-12-29T10:28:21;13.20;99.90
38910;DHT22;24676;51.360;12.354;2022-12-29T10:31:12;12.90;99.90
38910;DHT22;24676;51.360;12.354;2022-12-29T10:34:02;12.80;99.90
38910;DHT22;24676;51.360;12.354;2022-12-29T10:36:49;12.70;99.90
38910;DHT22;24676;51.360;12.354;2022-12-29T10:39:41;12.60;99.90
38910;DHT22;24676;51.360;12.354;2022-12-29T10:42:42;12.60;99.90
38910;DHT22;24676;51.360;12.354;2022-12-29T10:45:29;12.60;99.90
38910;DHT22;24676;51.360;12.354;2022-12-29T10:48:23;12.60;99.90
38910;DHT22;24676;51.360;12.354;2022-12-29T10:51:08;12.80;99.90
38910;DHT22;24676;51.360;12.354;2022-12-29T10:54:21;12.90;99.90
38910;DHT22;24676;51.360;12.354;2022-12-29T10:57:59;13.20;99.90
38910;DHT22;24676;51.360;12.354;2022-12-29T11:00:18;13.40;99.90
38910;DHT22;24676;51.360;12.354;2022-12-29T11:09:24;13.60;99.90
38910;DHT22;24676;51.360;12.354;2022-12-29T11:12:30;13.70;99.90
38910;DHT22;24676;51.360;12.354;2022-12-29T11:15:15;13.90;99.90
38910;DHT22;24676;51.360;12.354;2022-12-29T11:18:00;14.00;99.90
38910;DHT22;24676;51.360;12.354;2022-12-29T11:20:44;13.90;99.90
38910;DHT22;24676;51.360;12.354;2022-12-29T11:23:31;13.90;99.90
38910;DHT22;24676;51.360;12.354;2022-12-29T11:26:20;14.10;99.90
38910;DHT22;24676;51.360;12.354;2022-12-29T11:31:58;14.20;99.90
38910;DHT22;24676;51.360;12.354;2022-12-29T11:34:43;14.60;99.90
38910;DHT22;24676;51.360;12.354;2022-12-29T11:37:38;14.80;98.10
38910;DHT22;24676;51.360;12.354;2022-12-29T11:40:23;14.80;99.40
38910;DHT22;24676;51.360;12.354;2022-12-29T11:43:23;14.70;97.90
38910;DHT22;24676;51.360;12.354;2022-12-29T11:46:36;14.60;99.30
38910;DHT22;24676;51.360;12.354;2022-12-29T11:49:23;14.70;98.90
38910;DHT22;24676;51.360;12.354;2022-12-29T11:52:08;14.50;99.70
38910;DHT22;24676;51.360;12.354;2022-12-29T11:54:54;14.50;99.90
38910;DHT22;24676;51.360;12.354;2022-12-29T11:57:39;14.50;99.90
38910;DHT22;24676;51.360;12.354;2022-12-29T12:00:25;14.20;99.90
38910;DHT22;24676;51.360;12.354;2022-12-29T12:03:18;14.20;99.90
38910;DHT22;24676;51.360;12.354;2022-12-29T12:06:04;14.30;99.90
38910;DHT22;24676;51.360;12.354;2022-12-29T12:08:59;14.30;99.90
38910;DHT22;24676;51.360;12.354;2022-12-29T12:11:45;14.40;99.90
38910;DHT22;24676;51.360;12.354;2022-12-29T12:14:36;14.60;99.90
38910;DHT22;24676;51.360;12.354;2022-12-29T12:17:23;14.70;99.90
38910;DHT22;24676;51.360;12.354;2022-12-29T12:26:18;15.00;97.00
38910;DHT22;24676;51.360;12.354;2022-12-29T12:29:14;15.00;96.90
38910;DHT22;24676;51.360;12.354;2022-12-29T12:32:22;15.00;96.30
38910;DHT22;24676;51.360;12.354;2022-12-29T12:35:11;15.00;97.50
38910;DHT22;24676;51.360;12.354;2022-12-29T12:44:06;15.10;98.60
38910;DHT22;24676;51.360;12.354;2022-12-29T12:58:52;14.00;99.90
38910;DHT22;24676;51.360;12.354;2022-12-29T13:01:53;13.90;99.90
38910;DHT22;24676;51.360;12.354;2022-12-29T13:10:26;13.90;99.90
38910;DHT22;24676;51.360;12.354;2022-12-29T13:13:33;13.90;99.90
38910;DHT22;24676;51.360;12.354;2022-12-29T13:19:34;13.90;99.90
38910;DHT22;24676;51.360;12.354;2022-12-29T13:22:43;13.80;99.90
38910;DHT22;24676;51.360;12.354;2022-12-29T13:25:39;13.70;99.90
38910;DHT22;24676;51.360;12.354;2022-12-29T13:28:31;13.70;99.90
38910;DHT22;24676;51.360;12.354;2022-12-29T13:31:40;13.60;99.90
38910;DHT22;24676;51.360;12.354;2022-12-29T13:37:16;13.60;99.90
38910;DHT22;24676;51.360;12.354;2022-12-29T13:40:13;13.60;99.90
38910;DHT22;24676;51.360;12.354;2022-12-29T13:42:59;13.50;99.90
38910;DHT22;24676;51.360;12.354;2022-12-29T13:45:45;13.50;99.90
38910;DHT22;24676;51.360;12.354;2022-12-29T13:48:39;13.40;99.90
38910;DHT22;24676;51.360;12.354;2022-12-29T13:51:25;13.30;99.90
38910;DHT22;24676;51.360;12.354;2022-12-29T13:57:34;13.20;99.90
38910;DHT22;24676;51.360;12.354;2022-12-29T14:00:22;13.10;99.90
38910;DHT22;24676;51.360;12.354;2022-12-29T14:03:46;12.90;99.90
38910;DHT22;24676;51.360;12.354;2022-12-29T14:06:33;12.80;99.90
38910;DHT22;24676;51.360;12.354;2022-12-29T14:09:38;12.70;99.90
38910;DHT22;24676;51.360;12.354;2022-12-29T14:12:41;12.70;99.90
38910;DHT22;24676;51.360;12.354;2022-12-29T14:15:27;12.60;99.90
38910;DHT22;24676;51.360;12.354;2022-12-29T14:21:17;12.50;99.90
38910;DHT22;24676;51.360;12.354;2022-12-29T14:29:55;12.40;99.90
38910;DHT22;24676;51.360;12.354;2022-12-29T14:33:01;12.40;99.90
38910;DHT22;24676;51.360;12.354;2022-12-29T14:35:47;12.30;99.90
38910;DHT22;24676;51.360;12.354;2022-12-29T14:38:44;12.20;99.90
38910;DHT22;24676;51.360;12.354;2022-12-29T14:41:35;12.10;99.90
38910;DHT22;24676;51.360;12.354;2022-12-29T14:44:21;12.00;99.90
38910;DHT22;24676;51.360;12.354;2022-12-29T14:47:06;11.90;99.90
38910;DHT22;24676;51.360;12.354;2022-12-29T14:49:52;11.80;99.90
38910;DHT22;24676;51.360;12.354;2022-12-29T14:52:46;11.80;99.90
38910;DHT22;24676;51.360;12.354;2022-12-29T14:55:54;11.80;99.90
38910;DHT22;24676;51.360;12.354;2022-12-29T14:59:00;11.80;99.90
38910;DHT22;24676;51.360;12.354;2022-12-29T15:01:50;11.80;99.90
38910;DHT22;24676;51.360;12.354;2022-12-29T15:04:36;11.70;99.90
38910;DHT22;24676;51.360;12.354;2022-12-29T15:07:20;11.70;99.90
38910;DHT22;24676;51.360;12.354;2022-12-29T15:10:11;11.70;99.90
38910;DHT22;24676;51.360;12.354;2022-12-29T15:13:00;11.70;99.90
38910;DHT22;24676;51.360;12.354;2022-12-29T15:15:46;11.60;99.90
38910;DHT22;24676;51.360;12.354;2022-12-29T15:18:32;11.60;99.90
38910;DHT22;24676;51.360;12.354;2022-12-29T15:21:31;11.60;99.90
38910;DHT22;24676;51.360;12.354;2022-12-29T15:24:15;11.60;99.90
38910;DHT22;24676;51.360;12.354;2022-12-29T15:27:03;11.50;99.90
38910;DHT22;24676;51.360;12.354;2022-12-29T15:29:50;11.50;99.90
38910;DHT22;24676;51.360;12.354;2022-12-29T15:32:43;11.40;99.90
38910;DHT22;24676;51.360;12.354;2022-12-29T15:35:36;11.40;99.90
38910;DHT22;24676;51.360;12.354;2022-12-29T15:38:27;11.20;99.90
38910;DHT22;24676;51.360;12.354;2022-12-29T15:44:22;11.00;99.90
38910;DHT22;24676;51.360;12.354;2022-12-29T15:47:18;10.90;99.90
38910;DHT22;24676;51.360;12.354;2022-12-29T15:50:09;10.80;99.90
38910;DHT22;24676;51.360;12.354;2022-12-29T15:52:58;10.80;99.90
38910;DHT22;24676;51.360;12.354;2022-12-29T15:55:44;10.70;99.90
38910;DHT22;24676;51.360;12.354;2022-12-29T15:58:31;10.60;99.90
38910;DHT22;24676;51.360;12.354;2022-12-29T16:04:09;10.50;99.90
38910;DHT22;24676;51.360;12.354;2022-12-29T16:07:02;10.50;99.90
38910;DHT22;24676;51.360;12.354;2022-12-29T16:09:47;10.40;99.90
38910;DHT22;24676;51.360;12.354;2022-12-29T16:12:35;10.30;99.90
38910;DHT22;24676;51.360;12.354;2022-12-29T16:15:20;10.20;99.90
38910;DHT22;24676;51.360;12.354;2022-12-29T16:18:05;10.10;99.90
38910;DHT22;24676;51.360;12.354;2022-12-29T16:20:49;10.10;99.90
38910;DHT22;24676;51.360;12.354;2022-12-29T16:23:36;10.10;99.90
38910;DHT22;24676;51.360;12.354;2022-12-29T16:26:21;10.10;99.90
38910;DHT22;24676;51.360;12.354;2022-12-29T16:29:07;10.10;99.90
38910;DHT22;24676;51.360;12.354;2022-12-29T16:31:59;10.10;99.90
38910;DHT22;24676;51.360;12.354;2022-12-29T16:34:49;10.00;99.90
38910;DHT22;24676;51.360;12.354;2022-12-29T16:37:35;10.00;99.90
38910;DHT22;24676;51.360;12.354;2022-12-29T16:40:24;9.90;99.90
38910;DHT22;24676;51.360;12.354;2022-12-29T16:46:26;9.90;99.90
38910;DHT22;24676;51.360;12.354;2022-12-29T16:49:17;9.80;99.90
38910;DHT22;24676;51.360;12.354;2022-12-29T16:52:17;9.80;99.90
38910;DHT22;24676;51.360;12.354;2022-12-29T16:55:02;9.70;99.90
38910;DHT22;24676;51.360;12.354;2022-12-29T16:57:49;9.60;99.90
38910;DHT22;24676;51.360;12.354;2022-12-29T17:00:35;9.50;99.90
38910;DHT22;24676;51.360;12.354;2022-12-29T17:03:20;9.40;99.90
38910;DHT22;24676;51.360;12.354;2022-12-29T17:06:05;9.30;99.90
38910;DHT22;24676;51.360;12.354;2022-12-29T17:08:50;9.30;99.90
38910;DHT22;24676;51.360;12.354;2022-12-29T17:11:34;9.20;99.90
38910;DHT22;24676;51.360;12.354;2022-12-29T17:17:47;9.00;99.90
38910;DHT22;24676;51.360;12.354;2022-12-29T17:20:33;9.00;99.90
38910;DHT22;24676;51.360;12.354;2022-12-29T17:23:17;9.00;99.90
38910;DHT22;24676;51.360;12.354;2022-12-29T17:26:02;8.90;99.90
38910;DHT22;24676;51.360;12.354;2022-12-29T17:28:46;8.80;99.90
38910;DHT22;24676;51.360;12.354;2022-12-29T17:31:30;8.80;99.90
38910;DHT22;24676;51.360;12.354;2022-12-29T17:34:15;8.70;99.90
38910;DHT22;24676;51.360;12.354;2022-12-29T17:36:59;8.60;99.90
38910;DHT22;24676;51.360;12.354;2022-12-29T17:39:43;8.60;99.90
38910;DHT22;24676;51.360;12.354;2022-12-29T17:42:28;8.60;99.90
38910;DHT22;24676;51.360;12.354;2022-12-29T17:45:21;8.60;99.90
38910;DHT22;24676;51.360;12.354;2022-12-29T17:48:24;8.60;99.90
38910;DHT22;24676;51.360;12.354;2022-12-29T17:51:10;8.60;99.90
38910;DHT22;24676;51.360;12.354;2022-12-29T17:53:55;8.50;99.90
38910;DHT22;24676;51.360;12.354;2022-12-29T17:56:40;8.60;99.90
38910;DHT22;24676;51.360;12.354;2022-12-29T17:59:24;8.60;99.90
38910;DHT22;24676;51.360;12.354;2022-12-29T18:02:27;8.50;99.90
38910;DHT22;24676;51.360;12.354;2022-12-29T18:05:32;8.50;99.90
38910;DHT22;24676;51.360;12.354;2022-12-29T18:08:17;8.50;99.90
38910;DHT22;24676;51.360;12.354;2022-12-29T18:11:01;8.50;99.90
38910;DHT22;24676;51.360;12.354;2022-12-29T18:13:47;8.50;99.90
38910;DHT22;24676;51.360;12.354;2022-12-29T18:16:31;8.50;99.90
38910;DHT22;24676;51.360;12.354;2022-12-29T18:19:15;8.50;99.90
38910;DHT22;24676;51.360;12.354;2022-12-29T18:22:00;8.60;99.90
38910;DHT22;24676;51.360;12.354;2022-12-29T18:24:44;8.60;99.90
38910;DHT22;24676;51.360;12.354;2022-12-29T18:27:29;8.60;99.90
38910;DHT22;24676;51.360;12.354;2022-12-29T18:30:13;8.60;99.90
38910;DHT22;24676;51.360;12.354;2022-12-29T18:32:58;8.60;99.90
38910;DHT22;24676;51.360;12.354;2022-12-29T18:35:56;8.60;99.90
38910;DHT22;24676;51.360;12.354;2022-12-29T18:38:41;8.60;99.90
38910;DHT22;24676;51.360;12.354;2022-12-29T18:41:27;8.70;99.90
38910;DHT22;24676;51.360;12.354;2022-12-29T18:44:14;8.60;99.90
38910;DHT22;24676;51.360;12.354;2022-12-29T18:46:59;8.60;99.90
38910;DHT22;24676;51.360;12.354;2022-12-29T18:49:43;8.50;99.90
38910;DHT22;24676;51.360;12.354;2022-12-29T18:52:28;8.50;99.90
38910;DHT22;24676;51.360;12.354;2022-12-29T18:55:23;8.40;99.90
38910;DHT22;24676;51.360;12.354;2022-12-29T18:58:07;8.40;99.90
38910;DHT22;24676;51.360;12.354;2022-12-29T19:00:52;8.30;99.90
38910;DHT22;24676;51.360;12.354;2022-12-29T19:03:37;8.20;99.90
38910;DHT22;24676;51.360;12.354;2022-12-29T19:06:21;8.20;99.90
38910;DHT22;24676;51.360;12.354;2022-12-29T19:09:05;8.20;99.90
38910;DHT22;24676;51.360;12.354;2022-12-29T19:11:50;8.10;99.90
38910;DHT22;24676;51.360;12.354;2022-12-29T19:14:34;8.20;99.90
38910;DHT22;24676;51.360;12.354;2022-12-29T19:17:18;8.20;99.90
38910;DHT22;24676;51.360;12.354;2022-12-29T19:20:03;8.20;99.90
38910;DHT22;24676;51.360;12.354;2022-12-29T19:22:50;8.20;99.90
38910;DHT22;24676;51.360;12.354;2022-12-29T19:25:34;8.20;99.90
38910;DHT22;24676;51.360;12.354;2022-12-29T19:28:24;8.10;99.90
38910;DHT22;24676;51.360;12.354;2022-12-29T19:31:09;8.10;99.90
38910;DHT22;24676;51.360;12.354;2022-12-29T19:33:53;8.10;99.90
38910;DHT22;24676;51.360;12.354;2022-12-29T19:36:37;8.10;99.90
38910;DHT22;24676;51.360;12.354;2022-12-29T19:39:24;8.00;99.90
38910;DHT22;24676;51.360;12.354;2022-12-29T19:42:08;7.90;99.90
38910;DHT22;24676;51.360;12.354;2022-12-29T19:44:53;7.90;99.90